Time;durP1;ratioP1;P1;durP2;ratioP2;P2;SDS_P1;SDS_P2;PMS_P1;PMS_P2;Temp;Humidity;BMP_temperature;BMP_pressure;BME280_temperature;BME280_humidity;BME280_pressure;Samples;Min_cycle;Max_cycle;Signal;HPM_P1;HPM_P2
2024/03/23 00:00:34;;;;;;;22.70;14.20;;;;;;;10.34;82.68;99424.76;128225;1281;109268;-85
2024/03/23 00:03:59;;;;;;;21.40;12.50;;;;;;;10.32;82.67;99424.23;128490;1278;110046;-84
2024/03/23 00:07:04;;;;;;;17.40;12.20;;;;;;;10.32;82.91;99416.44;128090;1283;108854;-84
2024/03/23 00:10:09;;;;;;;21.70;13.60;;;;;;;10.33;83.04;99415.97;128051;1278;108885;-82
2024/03/23 00:13:14;;;;;;;20.70;13.90;;;;;;;10.36;83.06;99411.92;128536;1283;107713;-83
2024/03/23 00:16:21;;;;;;;21.20;14.60;;;;;;;10.36;83.16;99410.09;128304;1280;107784;-82
2024/03/23 00:19:26;;;;;;;22.30;14.40;;;;;;;10.34;83.27;99404.13;128169;1278;107701;-82
2024/03/23 00:22:31;;;;;;;18.10;12.60;;;;;;;10.31;83.45;99400.60;128263;1278;107878;-82
2024/03/23 00:25:37;;;;;;;20.50;12.20;;;;;;;10.29;83.58;99393.86;128066;1281;108876;-85
2024/03/23 00:28:42;;;;;;;20.60;13.50;;;;;;;10.28;83.65;99396.09;128084;1283;106233;-84
2024/03/23 00:31:47;;;;;;;19.00;12.90;;;;;;;10.29;83.73;99390.46;128242;1279;106943;-83
2024/03/23 00:34:52;;;;;;;19.40;13.90;;;;;;;10.30;83.82;99387.99;128111;1284;106458;-83
2024/03/23 00:37:58;;;;;;;21.20;14.00;;;;;;;10.32;83.87;99378.77;128086;1278;108140;-83
2024/03/23 00:41:03;;;;;;;20.20;13.20;;;;;;;10.32;84.10;99374.88;128109;1285;108818;-84
2024/03/23 00:44:08;;;;;;;18.80;12.40;;;;;;;10.32;84.28;99370.77;128208;1282;107624;-84
2024/03/23 00:47:13;;;;;;;19.50;13.20;;;;;;;10.33;84.27;99365.70;128508;1283;108783;-83
2024/03/23 00:50:18;;;;;;;20.30;13.30;;;;;;;10.34;84.33;99363.39;128066;1282;106616;-82
2024/03/23 00:53:23;;;;;;;21.60;14.00;;;;;;;10.37;84.44;99361.11;128270;1279;106454;-83
2024/03/23 00:56:29;;;;;;;21.80;14.30;;;;;;;10.38;84.42;99359.54;128085;1281;106882;-83
2024/03/23 00:59:34;;;;;;;21.10;13.70;;;;;;;10.37;84.67;99357.72;128128;1284;107598;-83
2024/03/23 01:02:39;;;;;;;19.60;13.10;;;;;;;10.32;84.75;99353.70;128343;1284;106666;-83
2024/03/23 01:05:44;;;;;;;21.10;12.10;;;;;;;10.30;84.93;99344.80;128155;1278;108842;-83
2024/03/23 01:08:50;;;;;;;20.60;13.30;;;;;;;10.31;85.04;99344.04;128122;1283;106658;-83
2024/03/23 01:11:55;;;;;;;20.30;13.90;;;;;;;10.26;85.30;99346.86;128285;1279;105506;-83
2024/03/23 01:15:00;;;;;;;20.40;12.90;;;;;;;10.28;85.43;99341.33;128281;1283;107829;-83
2024/03/23 01:18:06;;;;;;;20.90;14.00;;;;;;;10.30;85.44;99339.00;128072;1283;108954;-83
2024/03/23 01:21:11;;;;;;;18.50;12.40;;;;;;;10.28;85.67;99339.86;128044;1285;108864;-84
2024/03/23 01:24:16;;;;;;;22.00;12.50;;;;;;;10.28;85.70;99335.30;128210;1279;108895;-83
2024/03/23 01:27:21;;;;;;;19.30;12.50;;;;;;;10.29;85.73;99333.02;128350;1278;108760;-83
2024/03/23 01:30:27;;;;;;;20.60;14.10;;;;;;;10.31;85.88;99331.61;128453;1278;109007;-83
2024/03/23 01:33:32;;;;;;;20.10;13.10;;;;;;;10.34;86.00;99329.64;128275;1283;107806;-83
2024/03/23 01:36:37;;;;;;;20.20;13.60;;;;;;;10.36;86.08;99328.55;128391;1278;107855;-83
2024/03/23 01:39:42;;;;;;;21.40;14.00;;;;;;;10.33;86.03;99327.20;128167;1282;108782;-83
2024/03/23 01:42:58;;;;;;;16.80;11.40;;;;;;;10.32;86.16;99320.61;128296;1279;107822;-83
2024/03/23 01:46:04;;;;;;;19.50;13.60;;;;;;;10.33;86.35;99316.20;128355;1284;107685;-83
2024/03/23 01:49:10;;;;;;;21.10;14.00;;;;;;;10.36;86.33;99311.65;128097;1284;106634;-83
2024/03/23 01:52:15;;;;;;;21.30;14.50;;;;;;;10.38;86.20;99308.21;128266;1281;107133;-82
2024/03/23 01:55:21;;;;;;;20.80;14.80;;;;;;;10.38;86.27;99307.31;128060;1284;108831;-83
2024/03/23 01:58:26;;;;;;;23.60;15.10;;;;;;;10.35;86.25;99307.30;128125;1279;108500;-83
2024/03/23 02:01:32;;;;;;;20.70;13.50;;;;;;;10.31;86.46;99313.45;128405;1280;108628;-83
2024/03/23 02:04:37;;;;;;;22.70;15.00;;;;;;;10.30;86.64;99309.11;128067;1281;107375;-83
2024/03/23 02:07:43;;;;;;;24.60;15.50;;;;;;;10.31;86.44;99302.41;128077;1284;108810;-83
2024/03/23 02:10:48;;;;;;;23.20;15.60;;;;;;;10.32;86.75;99301.74;128033;1278;107874;-85
2024/03/23 02:13:53;;;;;;;24.10;16.80;;;;;;;10.33;86.70;99296.55;128066;1282;107538;-83
2024/03/23 02:16:58;;;;;;;25.20;15.60;;;;;;;10.32;86.66;99297.02;128027;1283;106776;-83
2024/03/23 02:20:06;;;;;;;21.50;14.00;;;;;;;10.31;86.84;99283.58;128064;1278;108600;-83
2024/03/23 02:23:16;;;;;;;24.20;15.00;;;;;;;10.31;86.87;99284.68;128164;1283;108011;-83
2024/03/23 02:26:21;;;;;;;23.10;16.10;;;;;;;10.31;86.83;99287.19;128020;1283;107795;-83
2024/03/23 02:29:26;;;;;;;26.00;17.10;;;;;;;10.30;86.97;99285.08;128007;1284;108316;-83
2024/03/23 02:32:31;;;;;;;23.60;16.20;;;;;;;10.31;87.11;99284.31;127954;1279;176524;-83
2024/03/23 02:35:36;;;;;;;26.10;16.10;;;;;;;10.29;87.05;99276.30;127987;1285;107604;-82
2024/03/23 02:38:41;;;;;;;21.20;13.90;;;;;;;10.27;87.13;99271.77;128245;1284;107216;-85
2024/03/23 02:41:47;;;;;;;22.70;15.00;;;;;;;10.26;87.17;99264.77;128018;1278;106475;-84
2024/03/23 02:44:53;;;;;;;24.20;16.50;;;;;;;10.27;87.39;99266.80;128050;1278;107386;-84
2024/03/23 02:47:58;;;;;;;24.70;16.90;;;;;;;10.27;87.35;99263.28;128006;1282;107030;-83
2024/03/23 02:51:03;;;;;;;24.80;16.20;;;;;;;10.27;87.36;99265.02;128152;1279;107678;-83
2024/03/23 02:54:08;;;;;;;23.00;16.50;;;;;;;10.27;87.35;99261.48;128149;1283;108834;-84
2024/03/23 02:57:13;;;;;;;22.10;14.90;;;;;;;10.25;87.38;99264.48;128120;1279;107615;-83
2024/03/23 03:00:19;;;;;;;22.40;15.00;;;;;;;10.24;87.41;99261.23;128210;1278;106612;-84
2024/03/23 03:03:24;;;;;;;24.80;16.90;;;;;;;10.24;87.56;99255.69;128075;1283;108658;-83
2024/03/23 03:06:30;;;;;;;25.60;16.60;;;;;;;10.23;87.76;99252.23;128154;1279;107410;-83
2024/03/23 03:09:36;;;;;;;25.90;17.90;;;;;;;10.25;87.63;99249.80;128151;1280;108827;-83
2024/03/23 03:12:41;;;;;;;24.90;17.00;;;;;;;10.24;87.71;99244.17;128233;1282;108925;-83
2024/03/23 03:15:47;;;;;;;25.20;16.10;;;;;;;10.23;87.68;99245.54;128207;1283;107321;-83
2024/03/23 03:18:53;;;;;;;24.20;15.50;;;;;;;10.22;87.79;99244.70;128280;1284;107167;-83
2024/03/23 03:21:58;;;;;;;28.10;16.30;;;;;;;10.21;87.98;99248.17;128293;1284;107703;-83
2024/03/23 03:25:03;;;;;;;26.00;17.40;;;;;;;10.22;87.91;99247.90;128164;1284;108261;-83
2024/03/23 03:28:09;;;;;;;26.90;16.70;;;;;;;10.21;88.20;99244.98;127831;1281;107625;-83
2024/03/23 03:31:14;;;;;;;25.20;17.30;;;;;;;10.20;87.99;99241.02;127918;1284;107094;-83
2024/03/23 03:34:19;;;;;;;18.50;11.10;;;;;;;10.19;88.26;99244.33;127835;1278;106914;-83
2024/03/23 03:37:24;;;;;;;27.50;17.00;;;;;;;10.17;88.34;99234.60;127850;1279;106812;-83
2024/03/23 03:40:30;;;;;;;21.40;14.30;;;;;;;10.15;88.39;99230.63;128035;1279;107351;-83
2024/03/23 03:43:35;;;;;;;23.70;15.80;;;;;;;10.17;88.46;99223.74;127826;1284;106862;-83
2024/03/23 03:46:40;;;;;;;25.80;16.80;;;;;;;10.20;88.51;99214.20;128123;1283;106968;-83
2024/03/23 03:49:45;;;;;;;24.10;15.80;;;;;;;10.22;88.35;99218.09;128140;1278;106562;-83
2024/03/23 03:52:50;;;;;;;26.40;17.70;;;;;;;10.22;88.43;99214.45;128068;1284;107287;-83
2024/03/23 03:55:55;;;;;;;27.70;17.70;;;;;;;10.19;88.48;99217.57;127969;1279;107644;-83
2024/03/23 03:59:00;;;;;;;25.70;16.40;;;;;;;10.17;88.74;99212.21;128034;1284;106862;-83
2024/03/23 04:02:06;;;;;;;25.80;16.50;;;;;;;10.16;88.80;99208.26;127802;1285;107544;-83
2024/03/23 04:05:11;;;;;;;23.60;16.10;;;;;;;10.17;88.81;99206.69;127938;1278;107817;-83
2024/03/23 04:08:16;;;;;;;25.30;16.80;;;;;;;10.20;88.81;99202.10;128022;1282;107857;-83
2024/03/23 04:11:21;;;;;;;24.20;16.80;;;;;;;10.20;88.93;99203.56;128037;1278;107679;-83
2024/03/23 04:14:26;;;;;;;24.40;17.10;;;;;;;10.20;88.84;99204.98;128011;1278;106896;-83
2024/03/23 04:17:33;;;;;;;25.80;16.60;;;;;;;10.20;88.86;99197.88;128210;1281;108011;-83
2024/03/23 04:20:39;;;;;;;23.80;14.90;;;;;;;10.19;88.97;99195.84;128137;1279;107107;-84
2024/03/23 04:23:44;;;;;;;22.80;15.50;;;;;;;10.18;89.12;99194.20;128039;1284;106765;-83
2024/03/23 04:26:49;;;;;;;23.40;15.90;;;;;;;10.20;89.13;99186.47;128208;1279;107796;-83
2024/03/23 04:29:55;;;;;;;23.80;15.80;;;;;;;10.23;89.04;99182.91;128033;1278;106927;-83
2024/03/23 04:33:00;;;;;;;22.10;15.50;;;;;;;10.26;89.14;99174.23;128246;1282;106523;-83
2024/03/23 04:36:07;;;;;;;21.20;15.10;;;;;;;10.24;89.15;99172.37;128151;1281;106560;-82
2024/03/23 04:39:12;;;;;;;24.10;14.90;;;;;;;10.22;89.25;99170.64;128371;1279;108427;-83
2024/03/23 04:42:18;;;;;;;22.00;14.10;;;;;;;10.22;89.26;99175.52;128468;1279;108607;-83
2024/03/23 04:45:24;;;;;;;21.00;14.30;;;;;;;10.25;89.36;99176.75;128376;1281;106823;-83
2024/03/23 04:48:29;;;;;;;21.20;14.90;;;;;;;10.27;89.43;99170.40;128397;1279;108848;-83
2024/03/23 04:51:39;;;;;;;21.10;14.80;;;;;;;10.29;89.49;99167.69;128300;1281;108591;-83
2024/03/23 04:54:45;;;;;;;20.40;15.00;;;;;;;10.29;89.56;99161.83;128440;1278;108726;-83
2024/03/23 04:57:50;;;;;;;22.90;14.70;;;;;;;10.32;89.44;99158.36;128121;1283;108567;-83
2024/03/23 05:00:58;;;;;;;20.80;12.90;;;;;;;10.30;89.44;99150.22;128447;1281;107856;-83
2024/03/23 05:04:05;;;;;;;20.60;14.20;;;;;;;10.30;89.62;99145.73;128901;1278;108003;-83
2024/03/23 05:07:11;;;;;;;21.50;14.90;;;;;;;10.31;89.61;99143.66;128462;1279;108704;-83
2024/03/23 05:10:16;;;;;;;23.10;15.60;;;;;;;10.34;89.71;99142.97;128330;1281;108504;-83
2024/03/23 05:13:21;;;;;;;23.10;16.00;;;;;;;10.34;89.78;99139.58;128460;1282;106410;-83
2024/03/23 05:16:26;;;;;;;20.40;13.80;;;;;;;10.34;89.91;99141.21;128166;1281;108916;-83
2024/03/23 05:19:31;;;;;;;18.20;13.00;;;;;;;10.34;89.88;99138.21;128232;1281;105947;-83
2024/03/23 05:22:36;;;;;;;22.00;15.00;;;;;;;10.36;89.86;99130.09;128518;1280;109793;-83
2024/03/23 05:25:41;;;;;;;22.80;15.60;;;;;;;10.40;90.04;99126.09;128359;1280;107743;-83
2024/03/23 05:28:46;;;;;;;18.40;12.80;;;;;;;10.42;90.04;99120.70;128337;1281;107638;-83
2024/03/23 05:31:56;;;;;;;21.00;15.50;;;;;;;10.43;90.23;99115.08;127921;1279;108774;-83
2024/03/23 05:35:01;;;;;;;22.50;14.10;;;;;;;10.43;90.19;99109.80;128376;1282;107302;-83
2024/03/23 05:38:06;;;;;;;21.40;14.00;;;;;;;10.40;90.21;99109.89;128206;1279;107582;-83
2024/03/23 05:41:11;;;;;;;21.50;14.30;;;;;;;10.39;90.37;99114.47;128431;1279;106402;-83
2024/03/23 05:44:16;;;;;;;20.80;13.60;;;;;;;10.41;90.50;99117.28;128301;1277;107077;-82
2024/03/23 05:47:21;;;;;;;18.10;12.90;;;;;;;10.45;90.50;99121.33;128411;1282;108849;-83
2024/03/23 05:50:27;;;;;;;19.90;13.60;;;;;;;10.47;90.34;99120.34;128462;1281;106831;-83
2024/03/23 05:53:32;;;;;;;21.50;13.40;;;;;;;10.46;90.56;99117.54;128465;1277;106811;-83
2024/03/23 05:56:37;;;;;;;23.20;14.30;;;;;;;10.48;90.59;99111.83;128175;1277;107814;-85
2024/03/23 05:59:42;;;;;;;22.50;15.40;;;;;;;10.51;90.61;99111.80;128140;1276;108630;-83
2024/03/23 06:02:48;;;;;;;21.90;14.60;;;;;;;10.58;90.57;99101.11;128506;1277;108554;-83
2024/03/23 06:05:53;;;;;;;21.40;15.00;;;;;;;10.67;90.67;99100.01;128342;1276;107078;-83
2024/03/23 06:08:59;;;;;;;22.10;14.30;;;;;;;10.74;90.45;99099.91;128478;1279;106660;-83
2024/03/23 06:12:04;;;;;;;22.40;14.80;;;;;;;10.76;90.66;99095.36;128490;1281;107874;-84
2024/03/23 06:15:11;;;;;;;21.90;13.70;;;;;;;10.79;90.62;99087.31;128378;1291;106652;-83
2024/03/23 06:18:17;;;;;;;20.70;13.60;;;;;;;10.82;90.61;99089.15;128266;1281;108356;-83
2024/03/23 06:21:23;;;;;;;19.80;13.40;;;;;;;10.84;90.83;99089.39;128300;1281;107643;-83
2024/03/23 06:24:29;;;;;;;22.20;14.00;;;;;;;10.91;90.66;99082.34;128277;1277;108816;-83
2024/03/23 06:27:34;;;;;;;17.80;12.90;;;;;;;10.98;90.35;99079.84;128340;1277;108836;-83
2024/03/23 06:30:42;;;;;;;19.30;13.40;;;;;;;11.02;90.59;99078.95;128309;1276;107561;-83
2024/03/23 06:33:47;;;;;;;20.20;13.10;;;;;;;11.04;90.42;99078.77;128199;1279;108553;-83
2024/03/23 06:36:52;;;;;;;19.60;12.00;;;;;;;11.01;90.32;99076.93;128140;1281;108838;-83
2024/03/23 06:39:58;;;;;;;16.90;11.90;;;;;;;10.96;90.35;99070.70;128185;1281;108559;-83
2024/03/23 06:43:03;;;;;;;16.00;12.00;;;;;;;10.99;90.33;99071.60;128458;1281;108598;-83
2024/03/23 06:46:08;;;;;;;17.00;11.50;;;;;;;11.04;90.35;99066.04;128454;1281;108291;-83
2024/03/23 06:49:13;;;;;;;18.30;11.90;;;;;;;11.06;90.50;99059.59;128230;1280;108616;-83
2024/03/23 06:52:18;;;;;;;18.20;11.90;;;;;;;11.09;90.14;99052.84;128399;1278;107347;-83
2024/03/23 06:55:25;;;;;;;16.70;11.20;;;;;;;11.15;90.31;99051.77;128046;1284;108643;-83
2024/03/23 06:58:30;;;;;;;17.80;11.60;;;;;;;11.24;90.62;99052.91;128522;1284;107892;-83
2024/03/23 07:01:35;;;;;;;18.50;13.00;;;;;;;11.33;90.56;99044.47;128339;1279;108380;-83
2024/03/23 07:04:40;;;;;;;18.50;12.60;;;;;;;11.40;90.26;99038.55;128516;1279;107808;-83
2024/03/23 07:07:45;;;;;;;22.70;14.00;;;;;;;11.47;90.17;99035.70;128238;1285;108594;-83
2024/03/23 07:10:51;;;;;;;21.60;15.00;;;;;;;11.55;90.16;99030.86;128270;1284;108958;-83
2024/03/23 07:13:56;;;;;;;16.90;11.70;;;;;;;11.67;90.36;99028.30;128066;1284;107102;-83
2024/03/23 07:17:01;;;;;;;17.50;12.20;;;;;;;11.82;90.30;99025.95;128361;1283;107668;-83
2024/03/23 07:20:10;;;;;;;18.30;11.70;;;;;;;11.91;90.18;99023.01;128316;1278;109308;-82
2024/03/23 07:23:15;;;;;;;23.10;15.40;;;;;;;11.98;89.88;99024.82;128042;1284;107477;-81
2024/03/23 07:26:20;;;;;;;20.70;13.80;;;;;;;12.09;89.90;99027.95;128476;1278;106703;-83
2024/03/23 07:29:25;;;;;;;17.00;11.50;;;;;;;12.17;90.35;99026.20;128780;1279;106273;-79
2024/03/23 07:32:31;;;;;;;18.10;11.90;;;;;;;12.22;89.84;99023.23;128283;1282;107459;-81
2024/03/23 07:35:36;;;;;;;24.00;19.30;;;;;;;12.27;89.62;99022.98;128333;1278;107910;-81
2024/03/23 07:38:44;;;;;;;19.70;13.40;;;;;;;12.31;89.71;99019.56;128411;1284;108468;-80
2024/03/23 07:41:49;;;;;;;16.80;12.60;;;;;;;12.35;89.54;99013.67;128262;1284;107499;-81
2024/03/23 07:44:56;;;;;;;20.70;12.80;;;;;;;12.42;89.52;99010.73;128485;1284;106621;-83
2024/03/23 07:48:02;;;;;;;28.10;16.20;;;;;;;12.47;89.49;99009.34;128683;1283;108780;-81
2024/03/23 07:51:09;;;;;;;17.90;12.40;;;;;;;12.53;89.17;99003.88;128560;1279;108847;-82
2024/03/23 07:54:14;;;;;;;16.40;11.80;;;;;;;12.61;88.92;99001.73;128089;1283;106478;-83
2024/03/23 07:57:19;;;;;;;21.40;14.30;;;;;;;12.64;88.96;98998.66;128277;1283;108574;-84
2024/03/23 08:00:24;;;;;;;21.50;14.00;;;;;;;12.68;88.65;98988.01;128211;1284;106968;-81
2024/03/23 08:03:29;;;;;;;19.00;13.00;;;;;;;12.67;88.79;98980.39;128404;1284;107565;-82
2024/03/23 08:06:35;;;;;;;18.70;13.40;;;;;;;12.66;88.81;98969.98;128456;1281;108871;-82
2024/03/23 08:09:40;;;;;;;22.60;17.10;;;;;;;12.66;89.15;98954.49;128300;1281;108356;-82
2024/03/23 08:12:48;;;;;;;15.90;10.30;;;;;;;12.67;88.68;98946.91;128179;1278;107925;-83
2024/03/23 08:15:53;;;;;;;18.00;10.40;;;;;;;12.65;88.25;98941.65;128201;1279;107814;-82
2024/03/23 08:18:58;;;;;;;52.80;28.30;;;;;;;12.71;88.45;98938.13;128170;1281;108925;-81
2024/03/23 08:22:03;;;;;;;20.50;13.90;;;;;;;12.82;88.26;98932.25;128423;1281;107830;-82
2024/03/23 08:25:09;;;;;;;15.60;10.50;;;;;;;12.98;88.73;98932.60;128597;1279;108617;-82
2024/03/23 08:28:14;;;;;;;17.10;11.50;;;;;;;13.16;88.26;98931.52;128504;1281;107788;-80
2024/03/23 08:31:20;;;;;;;14.60;11.00;;;;;;;13.33;87.93;98926.27;128700;1281;107057;-81
2024/03/23 08:34:25;;;;;;;13.70;10.00;;;;;;;13.48;87.47;98922.33;128185;1281;108629;-82
2024/03/23 08:37:30;;;;;;;13.10;9.80;;;;;;;13.61;87.27;98911.88;128512;1281;109256;-82
2024/03/23 08:40:35;;;;;;;12.70;9.00;;;;;;;13.79;87.03;98900.27;128492;1279;108528;-84
2024/03/23 08:43:41;;;;;;;12.50;9.40;;;;;;;13.99;86.54;98896.05;128342;1281;108769;-82
2024/03/23 08:46:47;;;;;;;11.70;8.60;;;;;;;14.28;86.61;98894.48;128430;1291;108456;-81
2024/03/23 08:49:52;;;;;;;13.30;9.20;;;;;;;14.56;85.78;98895.11;128446;1281;106810;-81
2024/03/23 08:52:57;;;;;;;12.30;9.00;;;;;;;14.66;84.49;98893.09;128763;1278;108724;-80
2024/03/23 08:56:04;;;;;;;13.20;9.10;;;;;;;14.69;84.04;98890.94;128127;1282;107529;-81
2024/03/23 08:59:09;;;;;;;14.60;9.60;;;;;;;14.67;84.53;98884.46;128628;1281;106664;-84
2024/03/23 09:02:14;;;;;;;13.20;8.80;;;;;;;14.59;84.14;98877.51;128207;1281;106766;-86
2024/03/23 09:05:19;;;;;;;10.60;8.20;;;;;;;14.57;84.43;98873.01;128485;1282;107959;-83
2024/03/23 09:08:25;;;;;;;11.10;8.80;;;;;;;14.61;84.48;98865.58;128497;1281;106845;-85
2024/03/23 09:11:30;;;;;;;19.50;11.80;;;;;;;14.66;83.93;98858.94;128513;1281;107534;-83
2024/03/23 09:14:35;;;;;;;12.90;9.20;;;;;;;14.67;83.54;98848.39;128728;1281;108079;-83
2024/03/23 09:17:41;;;;;;;12.50;9.30;;;;;;;14.57;83.03;98842.65;128576;1281;107831;-83
2024/03/23 09:20:46;;;;;;;11.50;8.40;;;;;;;14.41;83.08;98829.44;128369;1282;108645;-83
2024/03/23 09:23:51;;;;;;;11.50;8.40;;;;;;;14.32;83.33;98818.55;128415;1281;106706;-83
2024/03/23 09:26:56;;;;;;;13.80;9.50;;;;;;;14.31;83.14;98808.69;128538;1284;106850;-83
2024/03/23 09:30:01;;;;;;;13.20;8.70;;;;;;;14.31;82.98;98802.95;128568;1282;107630;-82
2024/03/23 09:33:08;;;;;;;18.20;11.20;;;;;;;14.32;82.70;98793.23;128574;1281;106391;-83
2024/03/23 09:36:13;;;;;;;23.10;13.20;;;;;;;14.33;82.15;98780.38;128458;1281;107616;-83
2024/03/23 09:39:19;;;;;;;12.80;9.80;;;;;;;14.34;82.02;98769.46;128430;1284;108756;-83
2024/03/23 09:42:24;;;;;;;16.10;10.00;;;;;;;14.32;81.15;98761.29;128197;1277;108668;-84
2024/03/23 09:45:30;;;;;;;11.70;9.20;;;;;;;14.28;81.45;98754.50;128269;1282;106648;-83
2024/03/23 09:48:36;;;;;;;14.20;9.10;;;;;;;14.31;81.59;98746.77;128626;1281;107658;-84
2024/03/23 09:51:42;;;;;;;11.40;8.40;;;;;;;14.34;81.30;98741.92;128361;1281;107548;-84
2024/03/23 09:54:47;;;;;;;11.90;9.00;;;;;;;14.36;80.85;98735.42;128156;1284;109218;-82
2024/03/23 09:57:52;;;;;;;12.50;8.70;;;;;;;14.37;80.89;98737.41;128288;1281;108846;-81
2024/03/23 10:00:57;;;;;;;12.80;9.60;;;;;;;14.39;80.71;98728.27;128598;1277;106831;-80
2024/03/23 10:04:03;;;;;;;11.30;8.40;;;;;;;14.41;80.39;98716.69;128415;1279;107575;-81
2024/03/23 10:07:16;;;;;;;14.20;9.20;;;;;;;14.44;80.80;98711.85;128456;1279;106547;-82
2024/03/23 10:10:22;;;;;;;13.20;9.50;;;;;;;14.50;80.09;98701.59;128233;1278;108843;-81
2024/03/23 10:13:29;;;;;;;13.00;8.90;;;;;;;14.59;79.90;98699.85;128349;1281;107887;-81
2024/03/23 10:16:34;;;;;;;13.20;8.40;;;;;;;14.68;80.10;98696.04;128223;1280;107731;-82
2024/03/23 10:19:39;;;;;;;12.90;9.30;;;;;;;14.75;79.87;98695.92;128277;1281;107497;-81
2024/03/23 10:22:45;;;;;;;12.30;9.20;;;;;;;14.82;79.85;98688.23;128363;1279;108698;-82
2024/03/23 10:25:50;;;;;;;11.60;9.10;;;;;;;14.90;79.34;98691.71;128400;1281;107638;-81
2024/03/23 10:29:00;;;;;;;12.50;9.00;;;;;;;14.96;78.96;98685.11;128284;1292;107945;-87
2024/03/23 10:32:13;;;;;;;12.80;9.70;;;;;;;14.99;78.89;98678.51;128353;1292;107729;-85
2024/03/23 10:35:19;;;;;;;;;;;;;;;15.02;78.79;98675.55;128222;1284;108882;-82
2024/03/23 10:38:24;;;;;;;12.60;9.30;;;;;;;15.08;78.85;98672.81;128366;1284;107855;-83
2024/03/23 10:41:32;;;;;;;13.30;9.00;;;;;;;15.14;78.80;98669.72;128360;1283;107463;-83
2024/03/23 10:44:38;;;;;;;13.50;10.10;;;;;;;15.21;78.61;98674.41;128877;1278;107893;-83
2024/03/23 10:47:43;;;;;;;13.30;9.00;;;;;;;15.25;77.98;98670.23;129081;1278;108973;-84
2024/03/23 10:50:49;;;;;;;12.30;9.30;;;;;;;15.28;77.60;98669.84;128731;1284;107339;-83
2024/03/23 10:53:56;;;;;;;13.50;8.50;;;;;;;15.32;77.95;98667.32;128352;1279;108022;-84
2024/03/23 10:57:07;;;;;;;14.00;10.30;;;;;;;15.38;76.38;98665.98;128538;1285;106763;-84
2024/03/23 11:00:15;;;;;;;11.00;8.80;;;;;;;15.38;76.41;98655.77;128450;1292;107657;-84
2024/03/23 11:03:34;;;;;;;11.30;8.80;;;;;;;15.43;76.54;98646.07;128552;1279;107667;-84
2024/03/23 11:06:41;;;;;;;12.70;10.00;;;;;;;15.57;75.81;98636.59;128398;1282;106867;-84
2024/03/23 11:09:46;;;;;;;11.30;9.00;;;;;;;15.77;75.66;98627.69;128312;1278;106933;-84
2024/03/23 11:12:52;;;;;;;12.50;9.00;;;;;;;15.92;75.28;98626.17;128550;1282;106798;-84
2024/03/23 11:16:13;;;;;;;12.00;9.10;;;;;;;16.01;74.75;98618.36;128157;1282;106732;-84
2024/03/23 11:19:44;;;;;;;11.70;7.90;;;;;;;16.12;74.79;98604.00;128306;1282;108757;-83
2024/03/23 11:22:51;;;;;;;10.40;8.00;;;;;;;16.27;74.33;98598.05;128068;1284;106259;-83
2024/03/23 11:25:56;;;;;;;10.40;8.00;;;;;;;16.50;74.04;98597.36;128379;1284;108768;-84
2024/03/23 11:29:12;;;;;;;11.70;8.10;;;;;;;16.69;72.95;98590.66;128421;1291;108078;-83
2024/03/23 11:32:17;;;;;;;10.80;7.60;;;;;;;16.76;73.33;98579.44;128538;1292;106998;-84
2024/03/23 11:35:34;;;;;;;8.50;7.00;;;;;;;16.83;73.43;98579.14;128525;1284;106395;-83
2024/03/23 11:38:39;;;;;;;10.60;7.90;;;;;;;17.12;71.90;98574.50;128385;1284;108444;-83
2024/03/23 11:41:52;;;;;;;8.70;7.30;;;;;;;17.28;72.49;98574.52;128153;1284;107854;-84
2024/03/23 11:44:57;;;;;;;9.10;7.10;;;;;;;17.37;71.90;98565.75;128082;1284;107795;-83
2024/03/23 11:48:08;;;;;;;8.70;6.90;;;;;;;17.38;71.93;98558.64;128385;1285;108774;-84
2024/03/23 11:51:13;;;;;;;9.20;6.80;;;;;;;17.38;71.87;98552.76;128396;1278;107238;-83
2024/03/23 11:54:21;;;;;;;8.40;6.50;;;;;;;17.34;71.43;98541.42;128097;1292;106594;-83
2024/03/23 11:57:26;;;;;;;7.70;6.10;;;;;;;17.31;70.85;98533.31;128146;1291;106572;-83
2024/03/23 12:00:32;;;;;;;8.20;5.90;;;;;;;17.26;69.98;98528.81;128084;1278;107493;-83
2024/03/23 12:03:37;;;;;;;8.00;6.30;;;;;;;17.27;70.41;98524.89;128188;1279;107484;-83
2024/03/23 12:06:42;;;;;;;7.10;5.90;;;;;;;17.24;70.19;98518.77;128237;1281;108750;-83
2024/03/23 12:10:03;;;;;;;6.80;5.80;;;;;;;17.08;69.86;98513.04;128403;1279;106309;-83
2024/03/23 12:13:08;;;;;;;7.00;5.80;;;;;;;16.93;69.84;98503.94;128593;1281;108886;-83
2024/03/23 12:16:15;;;;;;;7.30;5.70;;;;;;;16.81;69.88;98499.47;128412;1281;108903;-83
2024/03/23 12:19:21;;;;;;;7.50;5.80;;;;;;;16.76;70.03;98490.83;128237;1281;108746;-83
2024/03/23 12:22:26;;;;;;;7.10;4.90;;;;;;;16.75;69.74;98487.68;128288;1282;106795;-83
2024/03/23 12:25:32;;;;;;;6.80;5.30;;;;;;;16.75;69.63;98480.20;128344;1278;107005;-86
2024/03/23 12:28:38;;;;;;;8.70;6.30;;;;;;;16.71;69.36;98471.60;128392;1283;106822;-83
2024/03/23 12:31:43;;;;;;;8.10;6.70;;;;;;;16.65;69.39;98465.50;128814;1281;109151;-84
2024/03/23 12:34:49;;;;;;;8.60;6.20;;;;;;;16.56;69.27;98456.52;129265;1277;108647;-83
2024/03/23 12:37:55;;;;;;;8.70;6.50;;;;;;;16.45;69.38;98442.51;128507;1282;108922;-83
2024/03/23 12:41:00;;;;;;;9.80;6.80;;;;;;;16.40;69.69;98447.08;128856;1278;107742;-88
2024/03/23 12:44:08;;;;;;;10.60;8.30;;;;;;;16.45;69.24;98434.97;130429;1280;107634;-84
2024/03/23 12:47:13;;;;;;;9.80;7.50;;;;;;;16.61;68.96;98419.73;128359;1280;106246;-84
2024/03/23 12:50:18;;;;;;;9.70;6.60;;;;;;;16.77;68.55;98415.75;128299;1279;107050;-84
2024/03/23 12:53:24;;;;;;;8.70;6.40;;;;;;;16.81;68.22;98421.64;128333;1293;108599;-85
2024/03/23 12:56:29;;;;;;;9.50;6.80;;;;;;;16.77;67.82;98417.23;128258;1281;106840;-81
2024/03/23 12:59:35;;;;;;;7.90;7.00;;;;;;;16.66;67.75;98409.23;128170;1281;109107;-84
2024/03/23 13:02:40;;;;;;;7.50;6.70;;;;;;;16.54;67.51;98406.55;128401;1279;107654;-84
2024/03/23 13:05:52;;;;;;;8.30;6.70;;;;;;;16.42;67.71;98392.11;128151;1281;107558;-84
2024/03/23 13:08:57;;;;;;;8.90;6.60;;;;;;;16.38;68.14;98380.60;128075;1279;106571;-82
2024/03/23 13:12:02;;;;;;;7.30;6.20;;;;;;;16.32;68.04;98376.44;128069;1278;108970;-85
2024/03/23 13:15:09;;;;;;;8.70;6.90;;;;;;;16.24;68.24;98367.16;128272;1281;108740;-84
2024/03/23 13:18:14;;;;;;;31.10;10.90;;;;;;;16.13;68.05;98361.27;128313;1281;108871;-80
2024/03/23 13:21:19;;;;;;;12.00;8.40;;;;;;;16.11;69.39;98358.02;128246;1284;108811;-84
2024/03/23 13:24:25;;;;;;;12.00;8.40;;;;;;;16.06;68.05;98350.84;128149;1281;107755;-83
2024/03/23 13:27:31;;;;;;;12.40;9.90;;;;;;;15.95;68.04;98348.82;128449;1285;108920;-84
2024/03/23 13:30:36;;;;;;;11.20;8.10;;;;;;;15.82;67.45;98345.83;128246;1278;108866;-83
2024/03/23 13:33:42;;;;;;;14.70;10.50;;;;;;;15.70;67.42;98345.59;128167;1292;107505;-84
2024/03/23 13:36:48;;;;;;;10.50;8.10;;;;;;;15.59;67.59;98348.79;128538;1292;108006;-84
2024/03/23 13:39:53;;;;;;;13.50;9.30;;;;;;;15.48;67.62;98341.16;128458;1279;107051;-85
2024/03/23 13:42:58;;;;;;;12.20;9.80;;;;;;;15.40;67.57;98330.30;128333;1280;108414;-84
2024/03/23 13:46:32;;;;;;;9.60;7.30;;;;;;;15.31;67.57;98321.54;128454;1282;106805;-85
2024/03/23 13:49:37;;;;;;;11.80;7.80;;;;;;;15.26;68.02;98318.20;127952;1280;108574;-88
2024/03/23 13:52:42;;;;;;;9.60;8.30;;;;;;;15.24;68.01;98306.29;127928;1280;108827;-82
2024/03/23 13:55:50;;;;;;;9.50;7.60;;;;;;;15.24;68.02;98305.79;128037;1281;107920;-83
2024/03/23 13:58:56;;;;;;;11.10;8.00;;;;;;;15.23;67.98;98296.84;127973;1283;108162;-84